createdAt,value
2018-05-04T00:00:31.688Z,6.67
2018-05-04T00:02:59.989Z,8.07
2018-05-04T00:05:28.299Z,6.23
2018-05-04T00:07:56.570Z,6.60
2018-05-04T00:10:24.857Z,8.43
2018-05-04T00:12:53.232Z,10.03
2018-05-04T00:15:21.524Z,8.37
2018-05-04T00:17:49.778Z,9.07
2018-05-04T00:20:18.069Z,8.57
2018-05-04T00:22:46.344Z,7.67
2018-05-04T00:25:14.682Z,7.97
2018-05-04T00:27:42.942Z,5.60
2018-05-04T00:30:11.989Z,5.67
2018-05-04T00:32:40.283Z,8.60
2018-05-04T00:35:08.592Z,12.23
2018-05-04T00:37:37.620Z,8.67
2018-05-04T00:40:05.903Z,8.90
2018-05-04T00:42:34.985Z,11.80
2018-05-04T00:45:03.255Z,8.67
2018-05-04T00:47:31.524Z,11.63
2018-05-04T00:49:59.799Z,5.53
2018-05-04T00:52:28.079Z,7.83
2018-05-04T00:54:56.380Z,8.20
2018-05-04T00:57:24.785Z,6.50
2018-05-04T00:59:53.796Z,10.43
2018-05-04T01:02:22.147Z,7.23
2018-05-04T01:04:50.404Z,8.67
2018-05-04T01:07:18.729Z,7.47
2018-05-04T01:09:47.059Z,9.53
2018-05-04T01:12:15.337Z,12.20
2018-05-04T01:14:43.633Z,11.30
2018-05-04T01:17:11.925Z,6.80
2018-05-04T01:19:40.949Z,9.90
2018-05-04T01:22:09.228Z,8.43
2018-05-04T01:24:37.497Z,10.97
2018-05-04T01:27:05.793Z,12.07
2018-05-04T01:29:34.102Z,10.90
2018-05-04T01:32:02.406Z,11.20
2018-05-04T01:34:31.427Z,13.07
2018-05-04T01:36:59.743Z,9.37
2018-05-04T01:39:28.000Z,10.47
2018-05-04T01:41:57.077Z,11.80
2018-05-04T01:44:25.414Z,15.47
2018-05-04T01:46:54.463Z,14.90
2018-05-04T01:49:22.882Z,14.53
2018-05-04T01:51:51.956Z,14.90
2018-05-04T01:54:20.212Z,19.10
2018-05-04T01:56:48.606Z,19.07
2018-05-04T01:59:16.883Z,13.87
2018-05-04T02:01:45.165Z,14.47
2018-05-04T02:04:14.196Z,10.90
2018-05-04T02:06:42.485Z,16.87
2018-05-04T02:09:10.763Z,12.67
2018-05-04T02:11:39.045Z,12.67
2018-05-04T02:14:07.334Z,16.77
2018-05-04T02:16:35.627Z,12.90
2018-05-04T02:19:03.920Z,11.77
2018-05-04T02:21:32.964Z,11.73
2018-05-04T02:24:01.288Z,14.70
2018-05-04T02:26:30.368Z,16.73
2018-05-04T02:28:58.625Z,12.37
2018-05-04T02:31:26.912Z,13.90
2018-05-04T02:33:55.212Z,15.03
2018-05-04T02:36:24.288Z,13.20
2018-05-04T02:38:52.665Z,15.07
2018-05-04T02:41:20.921Z,17.17
2018-05-04T02:43:49.224Z,12.77
2018-05-04T02:46:18.265Z,15.10
2018-05-04T02:48:46.544Z,14.73
2018-05-04T02:51:14.874Z,19.30
2018-05-04T02:53:43.954Z,17.60
2018-05-04T02:56:12.186Z,18.10
2018-05-04T02:58:40.466Z,12.63
2018-05-04T03:01:08.741Z,21.27
2018-05-04T03:03:37.058Z,22.73
2018-05-04T03:06:05.379Z,19.93
2018-05-04T03:08:33.655Z,23.03
2018-05-04T03:11:01.923Z,16.10
2018-05-04T03:13:30.210Z,20.43
2018-05-04T03:15:58.522Z,18.63
2018-05-04T03:18:27.595Z,24.53
2018-05-04T03:20:56.417Z,16.50
2018-05-04T03:23:24.794Z,14.87
2018-05-04T03:25:53.128Z,18.33
2018-05-04T03:28:21.447Z,22.03
2018-05-04T03:30:50.532Z,21.77
2018-05-04T03:33:18.923Z,21.67
2018-05-04T03:35:47.197Z,17.30
2018-05-04T03:38:15.491Z,20.83
2018-05-04T03:40:43.809Z,20.53
2018-05-04T03:43:12.101Z,20.70
2018-05-04T03:45:41.267Z,22.27
2018-05-04T03:48:09.550Z,16.43
2018-05-04T03:50:37.843Z,22.93
2018-05-04T03:53:06.156Z,20.73
2018-05-04T03:55:34.463Z,20.50
2018-05-04T03:58:14.724Z,19.97
2018-05-04T04:00:55.035Z,18.27
2018-05-04T04:03:35.248Z,17.07
2018-05-04T04:06:03.580Z,18.40
2018-05-04T04:08:32.634Z,16.93
2018-05-04T04:11:00.945Z,18.30
2018-05-04T04:13:30.017Z,20.57
2018-05-04T04:15:58.334Z,17.87
2018-05-04T04:18:26.613Z,19.40
2018-05-04T04:20:54.908Z,19.73
2018-05-04T04:23:23.190Z,20.30
2018-05-04T04:25:51.765Z,18.17
2018-05-04T04:28:20.038Z,17.53
2018-05-04T04:30:48.330Z,18.77
2018-05-04T04:33:16.682Z,21.67
2018-05-04T04:35:44.967Z,20.03
2018-05-04T04:38:13.277Z,18.33
2018-05-04T04:40:41.563Z,20.90
2018-05-04T04:43:09.854Z,20.50
2018-05-04T04:45:38.975Z,19.07
2018-05-04T04:48:07.208Z,19.37
2018-05-04T04:50:35.530Z,19.53
2018-05-04T04:53:03.807Z,18.73
2018-05-04T04:55:32.111Z,20.27
2018-05-04T04:58:00.409Z,20.00
2018-05-04T05:00:28.711Z,16.50
2018-05-04T05:02:57.804Z,18.27
2018-05-04T05:05:26.076Z,21.50
2018-05-04T05:07:54.613Z,23.27
2018-05-04T05:10:22.907Z,17.47
2018-05-04T05:12:51.213Z,21.70
2018-05-04T05:15:19.500Z,15.63
2018-05-04T05:17:47.816Z,19.57
2018-05-04T05:20:16.096Z,15.47
2018-05-04T05:22:44.387Z,17.10
2018-05-04T05:25:13.483Z,19.77
2018-05-04T05:27:41.768Z,15.13
2018-05-04T05:30:10.061Z,13.80
2018-05-04T05:32:39.909Z,18.33
2018-05-04T05:37:43.337Z,17.70
2018-05-04T05:40:11.621Z,16.73
2018-05-04T05:42:39.894Z,17.63
2018-05-04T05:45:08.302Z,19.17
2018-05-04T05:47:37.398Z,17.47
2018-05-04T05:50:05.680Z,18.27
2018-05-04T05:52:34.756Z,18.70
2018-05-04T05:55:03.147Z,26.07
2018-05-04T05:57:31.556Z,22.77
2018-05-04T05:59:59.834Z,23.43
2018-05-04T06:02:28.175Z,18.80
2018-05-04T06:04:56.456Z,18.20
2018-05-04T06:07:24.757Z,19.00
2018-05-04T06:09:53.059Z,19.20
2018-05-04T06:12:21.443Z,20.77
2018-05-04T06:14:49.734Z,21.30
2018-05-04T06:17:18.049Z,22.43
2018-05-04T06:19:47.108Z,20.00
2018-05-04T06:22:15.386Z,16.87
2018-05-04T06:24:43.707Z,22.00
2018-05-04T06:27:12.084Z,24.23
2018-05-04T06:29:40.371Z,19.13
2018-05-04T06:32:08.679Z,19.87
2018-05-04T06:34:36.995Z,22.17
2018-05-04T06:37:06.044Z,21.63
2018-05-04T06:39:34.370Z,26.00
2018-05-04T06:42:03.432Z,19.47
2018-05-04T06:44:31.825Z,19.77
2018-05-04T06:47:00.096Z,24.00
2018-05-04T06:49:28.379Z,23.37
2018-05-04T06:51:56.682Z,21.10
2018-05-04T06:54:25.061Z,25.53
2018-05-04T06:56:53.378Z,25.33
2018-05-04T06:59:21.748Z,19.60
2018-05-04T07:01:50.748Z,22.43
2018-05-04T07:04:19.100Z,21.80
2018-05-04T07:06:47.389Z,21.17
2018-05-04T07:09:15.682Z,23.83
2018-05-04T07:11:44.047Z,19.40
2018-05-04T07:14:12.333Z,21.50
2018-05-04T07:16:40.631Z,25.43
2018-05-04T07:19:09.703Z,25.23
2018-05-04T07:21:38.003Z,21.93
2018-05-04T07:24:06.290Z,22.63
2018-05-04T07:26:35.360Z,20.03
2018-05-04T07:29:03.681Z,19.33
2018-05-04T07:31:31.993Z,20.43
2018-05-04T07:34:00.283Z,18.70
2018-05-04T07:36:28.603Z,22.33
2018-05-04T07:38:56.899Z,18.87
2018-05-04T07:41:25.239Z,18.20
2018-05-04T07:43:54.322Z,17.40
2018-05-04T07:46:22.704Z,17.60
2018-05-04T07:48:50.995Z,16.70
2018-05-04T07:51:20.067Z,15.10
2018-05-04T08:06:48.398Z,16.13
2018-05-04T08:09:16.696Z,12.90
2018-05-04T08:11:46.052Z,14.20
2018-05-04T08:14:14.341Z,14.40
2018-05-04T08:16:42.669Z,15.73
2018-05-04T08:19:10.941Z,9.40
2018-05-04T08:21:39.988Z,12.03
2018-05-04T08:24:08.408Z,11.87
2018-05-04T08:26:36.685Z,10.63
2018-05-04T08:29:05.765Z,11.27
2018-05-04T08:31:34.061Z,12.83
2018-05-04T08:34:03.181Z,9.67
2018-05-04T08:36:31.489Z,10.33
2018-05-04T08:38:59.764Z,9.97
2018-05-04T08:41:28.069Z,13.60
2018-05-04T08:43:56.382Z,10.73
2018-05-04T08:46:24.671Z,12.57
2018-05-04T08:48:52.969Z,8.13
2018-05-04T09:04:21.314Z,11.37
2018-05-04T09:06:49.602Z,10.33
2018-05-04T09:09:17.918Z,6.57
2018-05-04T09:11:46.977Z,9.37
2018-05-04T09:14:15.280Z,8.53
2018-05-04T09:16:43.578Z,7.27
2018-05-04T09:19:12.625Z,6.00
2018-05-04T09:21:40.940Z,11.00
2018-05-04T09:24:10.772Z,9.60
2018-05-04T09:26:39.811Z,8.73
2018-05-04T09:29:08.113Z,10.10
2018-05-04T09:31:36.392Z,11.70
2018-05-04T09:34:05.457Z,11.47
2018-05-04T09:36:33.760Z,8.87
2018-05-04T09:39:02.041Z,10.27
2018-05-04T09:41:31.160Z,10.23
2018-05-04T09:43:59.451Z,10.70
2018-05-04T09:46:27.754Z,10.83
2018-05-04T09:48:56.047Z,11.73
2018-05-04T09:51:24.324Z,8.83
2018-05-04T09:53:53.422Z,10.10
2018-05-04T09:56:21.677Z,13.77
2018-05-04T09:58:49.990Z,10.77
2018-05-04T10:01:19.062Z,8.30
2018-05-04T10:03:47.431Z,9.47
2018-05-04T10:06:15.770Z,7.33
2018-05-04T10:08:44.081Z,10.97
2018-05-04T10:11:12.390Z,8.60
2018-05-04T10:13:41.458Z,7.70
2018-05-04T10:16:09.753Z,8.60
2018-05-04T10:18:38.051Z,7.70
2018-05-04T10:21:06.350Z,10.87
2018-05-04T10:23:35.467Z,7.53
2018-05-04T10:26:03.762Z,9.53
2018-05-04T10:28:32.071Z,9.57
2018-05-04T10:31:00.358Z,7.70
2018-05-04T10:33:28.694Z,8.37
2018-05-04T10:35:56.964Z,10.27
2018-05-04T10:38:25.339Z,8.00
2018-05-04T10:40:53.528Z,8.60
2018-05-04T10:43:21.819Z,8.50
2018-05-04T10:45:50.103Z,13.73
2018-05-04T10:48:18.392Z,10.57
2018-05-04T10:50:46.702Z,8.27
2018-05-04T10:53:15.048Z,8.73
2018-05-04T10:55:43.355Z,9.57
2018-05-04T10:58:11.633Z,9.47
2018-05-04T11:00:39.908Z,9.17
2018-05-04T11:03:08.195Z,10.40
2018-05-04T11:05:36.509Z,14.77
2018-05-04T11:08:05.577Z,7.93
2018-05-04T11:10:33.872Z,6.57
2018-05-04T11:13:02.925Z,8.27
2018-05-04T11:15:31.262Z,9.83
2018-05-04T11:17:59.541Z,8.77
2018-05-04T11:20:27.827Z,9.40
2018-05-04T11:22:56.160Z,11.73
2018-05-04T11:25:25.256Z,9.83
2018-05-04T11:27:53.525Z,9.20
2018-05-04T11:30:22.614Z,8.80
2018-05-04T11:32:50.954Z,12.47
2018-05-04T11:35:19.242Z,9.07
2018-05-04T11:37:47.541Z,10.77
2018-05-04T11:40:15.861Z,10.87
2018-05-04T11:42:44.161Z,10.10
2018-05-04T11:45:12.431Z,7.80
2018-05-04T11:47:40.724Z,10.13
2018-05-04T11:50:09.030Z,9.53
2018-05-04T11:52:38.109Z,10.77
2018-05-04T11:55:06.410Z,10.13
2018-05-04T11:57:35.470Z,11.07
2018-05-04T12:00:03.771Z,12.00
2018-05-04T12:02:32.907Z,10.40
2018-05-04T12:05:01.130Z,10.40
2018-05-04T12:07:30.222Z,10.57
2018-05-04T12:09:58.518Z,12.00
2018-05-04T12:12:26.830Z,9.97
2018-05-04T12:14:55.115Z,10.03
2018-05-04T12:17:23.451Z,12.27
2018-05-04T12:19:51.766Z,12.30
2018-05-04T12:22:20.103Z,10.23
2018-05-04T12:24:49.170Z,11.63
2018-05-04T12:27:17.470Z,11.33
2018-05-04T12:29:45.964Z,10.83
2018-05-04T12:32:14.270Z,11.63
2018-05-04T12:34:42.600Z,10.03
2018-05-04T12:37:11.676Z,13.90
2018-05-04T12:39:40.031Z,9.90
2018-05-04T12:42:08.339Z,12.73
2018-05-04T12:44:37.411Z,9.63
2018-05-04T12:47:05.791Z,9.80
2018-05-04T12:49:34.057Z,10.80
2018-05-04T12:52:02.340Z,10.33
2018-05-04T12:54:30.829Z,10.77
2018-05-04T12:56:59.104Z,9.77
2018-05-04T12:59:27.430Z,8.50
2018-05-04T13:01:55.722Z,9.80
2018-05-04T13:04:24.063Z,9.60
2018-05-04T13:06:52.317Z,7.27
2018-05-04T13:09:21.363Z,10.07
2018-05-04T13:11:49.682Z,11.37
2018-05-04T13:14:18.747Z,9.43
2018-05-04T13:16:47.039Z,8.37
2018-05-04T13:19:15.313Z,10.53
2018-05-04T13:21:43.646Z,10.50
2018-05-04T13:24:11.914Z,11.73
2018-05-04T13:26:40.231Z,7.47
2018-05-04T13:29:08.532Z,10.73
2018-05-04T13:31:36.817Z,11.03
2018-05-04T13:34:05.880Z,9.47
2018-05-04T13:36:34.214Z,9.63
2018-05-04T13:39:02.475Z,9.27
2018-05-04T13:41:31.526Z,11.03
2018-05-04T13:43:59.874Z,8.40
2018-05-04T13:46:28.177Z,9.87
2018-05-04T13:48:56.458Z,10.10
2018-05-04T13:51:24.968Z,13.77
2018-05-04T13:53:53.115Z,8.80
2018-05-04T13:56:21.439Z,10.53
2018-05-04T13:58:49.743Z,10.37
2018-05-04T14:01:18.056Z,10.53
2018-05-04T14:03:47.169Z,10.90
2018-05-04T14:06:15.451Z,6.20
2018-05-04T14:08:44.497Z,7.30
2018-05-04T14:11:12.779Z,8.63
2018-05-04T14:13:41.109Z,11.70
2018-05-04T14:16:09.401Z,9.87
2018-05-04T14:18:37.680Z,8.60
2018-05-04T14:21:05.985Z,10.27
2018-05-04T14:23:34.273Z,9.53
2018-05-04T14:26:03.339Z,10.00
2018-05-04T14:28:31.621Z,8.77
2018-05-04T14:31:00.697Z,9.90
2018-05-04T14:33:29.012Z,10.10
2018-05-04T14:35:58.070Z,9.03
2018-05-04T14:38:26.950Z,10.77
2018-05-04T14:40:55.218Z,9.33
2018-05-04T14:43:23.609Z,9.77
2018-05-04T14:45:51.920Z,9.33
2018-05-04T14:48:20.209Z,8.43
2018-05-04T14:50:49.293Z,10.97
2018-05-04T14:53:17.573Z,7.53
2018-05-04T14:55:45.865Z,9.10
2018-05-04T14:58:14.918Z,10.53
2018-05-04T15:00:43.209Z,9.47
2018-05-04T15:03:11.593Z,10.50
2018-05-04T15:05:39.899Z,8.90
2018-05-04T15:08:08.189Z,8.53
2018-05-04T15:10:36.539Z,10.60
2018-05-04T15:13:05.610Z,9.97
2018-05-04T15:15:33.959Z,11.47
2018-05-04T15:18:02.267Z,7.33
2018-05-04T15:20:30.563Z,9.27
2018-05-04T15:22:59.610Z,7.80
2018-05-04T15:25:27.899Z,6.23
2018-05-04T15:27:56.186Z,7.50
2018-05-04T15:30:24.452Z,8.03
2018-05-04T15:32:52.779Z,7.43
2018-05-04T15:35:21.831Z,6.27
2018-05-04T15:37:50.903Z,7.47
2018-05-04T15:40:19.220Z,11.47
2018-05-04T15:42:48.310Z,9.70
2018-05-04T15:45:17.404Z,10.63
2018-05-04T15:47:45.726Z,8.47
2018-05-04T15:50:14.075Z,10.47
2018-05-04T15:52:42.384Z,8.33
2018-05-04T15:55:10.763Z,11.23
2018-05-04T15:57:39.104Z,9.17
2018-05-04T16:00:07.424Z,8.63
2018-05-04T16:02:36.518Z,9.97
2018-05-04T16:05:04.800Z,7.33
2018-05-04T16:07:33.921Z,8.33
2018-05-04T16:10:02.209Z,7.90
2018-05-04T16:12:31.277Z,7.30
2018-05-04T16:14:59.627Z,8.47
2018-05-04T16:17:27.943Z,8.30
2018-05-04T16:19:57.021Z,5.63
2018-05-04T16:22:26.058Z,8.90
2018-05-04T16:24:54.374Z,8.70
2018-05-04T16:27:22.657Z,10.13
2018-05-04T16:29:50.937Z,7.60
2018-05-04T16:32:19.286Z,10.40
2018-05-04T16:34:47.661Z,8.83
2018-05-04T16:37:15.882Z,8.57
2018-05-04T16:39:44.185Z,11.83
2018-05-04T16:42:12.470Z,9.97
2018-05-04T16:44:40.762Z,11.93
2018-05-04T16:47:09.145Z,11.00
2018-05-04T16:49:37.470Z,9.13
2018-05-04T16:52:06.541Z,11.47
2018-05-04T16:54:34.940Z,9.90
2018-05-04T16:57:03.226Z,10.93
2018-05-04T16:59:31.558Z,7.90
2018-05-04T17:01:59.831Z,10.47
2018-05-04T17:04:28.986Z,11.60
2018-05-04T17:06:57.278Z,10.00
2018-05-04T17:09:25.583Z,9.53
2018-05-04T17:11:53.847Z,9.90
2018-05-04T17:14:22.167Z,11.37
2018-05-04T17:16:50.459Z,14.83
2018-05-04T17:19:19.522Z,8.23
2018-05-04T17:21:47.823Z,10.10
2018-05-04T17:24:16.879Z,14.83
2018-05-04T17:26:45.962Z,12.87
2018-05-04T17:29:15.072Z,10.23
2018-05-04T17:31:43.476Z,9.17
2018-05-04T17:34:11.757Z,9.30
2018-05-04T17:36:40.926Z,8.00
2018-05-04T17:39:09.215Z,10.70
2018-05-04T17:41:38.295Z,11.10
2018-05-04T17:44:06.641Z,11.63
2018-05-04T17:46:34.918Z,10.63
2018-05-04T17:49:03.300Z,10.73
2018-05-04T17:51:31.626Z,11.73
2018-05-04T17:54:00.721Z,10.43
2018-05-04T17:56:29.001Z,9.17
2018-05-04T17:58:57.289Z,11.13
2018-05-04T18:01:25.666Z,9.40
2018-05-04T18:03:53.897Z,9.63
2018-05-04T18:06:22.421Z,10.23
2018-05-04T18:08:50.733Z,11.10
2018-05-04T18:11:19.014Z,10.23
2018-05-04T18:13:47.351Z,9.60
2018-05-04T18:16:16.393Z,9.80
2018-05-04T18:18:44.710Z,10.73
2018-05-04T18:21:13.771Z,10.37
2018-05-04T18:23:42.139Z,10.67
2018-05-04T18:26:10.382Z,8.70
2018-05-04T18:28:38.685Z,17.70
2018-05-04T18:31:06.966Z,10.17
2018-05-04T18:33:35.391Z,13.37
2018-05-04T18:36:04.442Z,14.57
2018-05-04T18:38:32.965Z,9.83
2018-05-04T18:41:02.014Z,9.17
2018-05-04T18:43:30.311Z,8.90
2018-05-04T18:45:58.690Z,10.73
2018-05-04T18:48:27.009Z,13.13
2018-05-04T18:50:55.319Z,10.73
2018-05-04T18:53:24.439Z,11.60
2018-05-04T18:55:53.548Z,10.87
2018-05-04T18:58:21.852Z,12.83
2018-05-04T19:00:50.159Z,11.40
2018-05-04T19:03:18.443Z,10.57
2018-05-04T19:05:46.781Z,11.60
2018-05-04T19:08:15.048Z,12.40
2018-05-04T19:10:43.345Z,9.60
2018-05-04T19:13:11.655Z,11.03
2018-05-04T19:15:39.986Z,9.47
2018-05-04T19:18:08.309Z,12.63
2018-05-04T19:20:36.667Z,14.20
2018-05-04T19:23:05.653Z,11.23
2018-05-04T19:25:34.038Z,13.63
2018-05-04T19:28:02.353Z,13.70
2018-05-04T19:30:31.413Z,15.57
2018-05-04T19:32:59.805Z,13.47
2018-05-04T19:35:28.095Z,10.03
2018-05-04T19:37:56.393Z,13.17
2018-05-04T19:40:24.721Z,11.60
2018-05-04T19:42:53.054Z,10.03
2018-05-04T19:45:21.367Z,11.53
2018-05-04T19:47:49.704Z,12.13
2018-05-04T19:50:18.735Z,12.40
2018-05-04T19:52:47.067Z,9.70
2018-05-04T19:55:16.218Z,11.93
2018-05-04T19:57:44.507Z,8.47
2018-05-04T20:00:12.801Z,13.23
2018-05-04T20:02:41.871Z,9.47
2018-05-04T20:05:10.187Z,9.47
2018-05-04T20:07:39.261Z,9.60
2018-05-04T20:10:07.542Z,9.47
2018-05-04T20:12:36.624Z,12.77
2018-05-04T20:15:05.705Z,9.73
2018-05-04T20:17:34.083Z,11.33
2018-05-04T20:20:02.555Z,10.83
2018-05-04T20:22:30.904Z,11.80
2018-05-04T20:24:59.228Z,11.93
2018-05-04T20:27:27.867Z,13.27
2018-05-04T20:29:56.243Z,11.63
2018-05-04T20:32:24.577Z,12.53
2018-05-04T20:34:53.708Z,11.00
2018-05-04T20:37:22.110Z,14.93
2018-05-04T20:39:50.468Z,8.73
2018-05-04T20:42:18.829Z,11.97
2018-05-04T20:44:47.284Z,11.77
2018-05-04T20:47:15.668Z,11.90
2018-05-04T20:49:44.793Z,12.87
2018-05-04T20:52:13.118Z,10.53
2018-05-04T20:54:41.433Z,12.30
2018-05-04T20:57:10.614Z,12.23
2018-05-04T20:59:39.721Z,11.13
2018-05-04T21:02:08.275Z,12.23
2018-05-04T21:04:36.609Z,11.77
2018-05-04T21:07:04.885Z,10.70
2018-05-04T21:09:33.214Z,10.63
2018-05-04T21:12:02.285Z,9.93
2018-05-04T21:14:30.559Z,8.33
2018-05-04T21:16:59.346Z,9.97
2018-05-04T21:19:27.899Z,12.23
2018-05-04T21:21:56.202Z,13.13
2018-05-04T21:24:24.550Z,12.07
2018-05-04T21:26:52.802Z,15.00
2018-05-04T21:29:21.106Z,10.77
2018-05-04T21:31:49.459Z,11.73
2018-05-04T21:34:17.748Z,12.97
2018-05-04T21:36:46.028Z,8.63
2018-05-04T21:39:14.350Z,12.23
2018-05-04T21:41:42.703Z,11.73
2018-05-04T21:44:11.004Z,9.27
2018-05-04T21:46:39.379Z,9.73
2018-05-04T21:49:07.696Z,11.30
2018-05-04T21:51:36.009Z,10.60
2018-05-04T21:54:04.303Z,10.80
2018-05-04T21:56:33.364Z,8.93
2018-05-04T21:59:01.762Z,11.23
2018-05-04T22:01:30.744Z,12.33
2018-05-04T22:03:59.076Z,13.53
2018-05-04T22:06:28.119Z,11.93
2018-05-04T22:08:56.442Z,12.53
2018-05-04T22:11:25.493Z,12.10
2018-05-04T22:13:53.804Z,15.27
2018-05-04T22:16:22.857Z,12.57
2018-05-04T22:18:51.161Z,11.33
2018-05-04T22:21:19.505Z,10.97
2018-05-04T22:23:47.792Z,12.43
2018-05-04T22:26:16.109Z,12.53
2018-05-04T22:28:45.278Z,12.97
2018-05-04T22:31:13.864Z,11.87
2018-05-04T22:33:42.945Z,15.07
2018-05-04T22:36:11.641Z,10.30
2018-05-04T22:38:39.905Z,15.87
2018-05-04T22:41:08.231Z,15.07
2018-05-04T22:43:36.511Z,10.30
2018-05-04T22:46:04.807Z,12.27
2018-05-04T22:48:33.125Z,12.10
2018-05-04T22:51:01.425Z,14.87
2018-05-04T22:53:29.783Z,14.67
2018-05-04T22:55:58.114Z,14.70
2018-05-04T22:58:26.411Z,12.23
2018-05-04T23:00:55.113Z,13.87
2018-05-04T23:03:23.390Z,11.20
2018-05-04T23:05:51.717Z,11.57
2018-05-04T23:08:20.078Z,12.10
2018-05-04T23:10:48.407Z,14.03
2018-05-04T23:13:16.722Z,13.17
2018-05-04T23:15:45.059Z,13.10
2018-05-04T23:18:13.387Z,11.70
2018-05-04T23:20:42.459Z,11.03
2018-05-04T23:23:11.533Z,14.40
2018-05-04T23:25:39.915Z,14.23
2018-05-04T23:28:09.569Z,11.83
2018-05-04T23:30:37.859Z,13.37
2018-05-04T23:33:06.203Z,12.87
2018-05-04T23:35:34.519Z,14.63
2018-05-04T23:38:02.801Z,13.83
2018-05-04T23:40:31.073Z,10.77
2018-05-04T23:42:59.392Z,11.27
2018-05-04T23:45:28.449Z,10.30
2018-05-04T23:47:56.729Z,15.80
2018-05-04T23:50:25.009Z,12.33
2018-05-04T23:52:53.313Z,15.60
2018-05-04T23:55:22.366Z,16.03
2018-05-04T23:57:50.684Z,15.07
